Time,TemperatureF,DewpointF,PressureIn,WindDirection,WindDirectionDegrees,WindSpeedMPH,WindSpeedGustMPH,Humidity,HourlyPrecipIn,Conditions,Clouds,dailyrainin,SoftwareType,DateUTC
2013-04-02 00:01:00,43.5,20.0,29.97,NNE,32,7.0,7.0,40,0.00,,,0.00,weatherlink.com 1.10,2013-04-02 04:01:00,
2013-04-02 00:31:00,43.2,19.0,29.98,NNE,13,9.0,9.0,38,0.00,,,0.00,weatherlink.com 1.10,2013-04-02 04:31:00,
2013-04-02 00:46:00,42.9,19.0,29.99,NNE,19,8.0,11.0,39,0.00,,,0.00,weatherlink.com 1.10,2013-04-02 04:46:00,
2013-04-02 01:16:00,42.5,18.0,30.00,NE,36,6.0,9.0,37,0.00,,,0.00,weatherlink.com 1.10,2013-04-02 05:16:00,
2013-04-02 01:31:00,41.9,18.0,30.00,North,11,4.0,10.0,38,0.00,,,0.00,weatherlink.com 1.10,2013-04-02 05:31:00,
2013-04-02 01:46:00,41.5,17.0,30.00,NNE,32,5.0,8.0,38,0.00,,,0.00,weatherlink.com 1.10,2013-04-02 05:46:00,
2013-04-02 02:01:00,41.1,19.0,30.00,NE,43,5.0,9.0,41,0.00,,,0.00,weatherlink.com 1.10,2013-04-02 06:01:00,
2013-04-02 02:16:00,40.8,17.0,30.00,NNE,21,6.0,9.0,39,0.00,,,0.00,weatherlink.com 1.10,2013-04-02 06:16:00,
2013-04-02 02:31:00,40.8,16.0,30.00,NE,39,4.0,10.0,37,0.00,,,0.00,weatherlink.com 1.10,2013-04-02 06:31:00,
2013-04-02 02:46:00,40.5,18.0,30.00,NNE,32,3.0,8.0,40,0.00,,,0.00,weatherlink.com 1.10,2013-04-02 06:46:00,
2013-04-02 03:01:00,40.1,17.0,30.00,North,5,4.0,6.0,40,0.00,,,0.00,weatherlink.com 1.10,2013-04-02 07:01:00,
2013-04-02 03:16:00,39.8,17.0,30.00,NNE,17,5.0,6.0,40,0.00,,,0.00,weatherlink.com 1.10,2013-04-02 07:16:00,
2013-04-02 03:31:00,39.6,17.0,30.00,NNE,16,4.0,8.0,40,0.00,,,0.00,weatherlink.com 1.10,2013-04-02 07:31:00,
2013-04-02 03:46:00,39.5,16.0,30.00,NNE,14,4.0,7.0,38,0.00,,,0.00,weatherlink.com 1.10,2013-04-02 07:46:00,
2013-04-02 04:01:00,39.5,14.0,30.00,NNE,21,3.0,4.0,36,0.00,,,0.00,weatherlink.com 1.10,2013-04-02 08:01:00,
2013-04-02 04:16:00,39.5,16.0,30.00,North,5,0.0,4.0,38,0.00,,,0.00,weatherlink.com 1.10,2013-04-02 08:16:00,
2013-04-02 04:31:00,39.1,15.0,30.00,North,9,1.0,4.0,38,0.00,,,0.00,weatherlink.com 1.10,2013-04-02 08:31:00,
2013-04-02 04:46:00,38.8,16.0,30.01,North,9,0.0,3.0,39,0.00,,,0.00,weatherlink.com 1.10,2013-04-02 08:46:00,
2013-04-02 05:02:00,38.5,16.0,30.01,North,9,0.0,2.0,40,0.00,,,0.00,weatherlink.com 1.10,2013-04-02 09:02:00,
2013-04-02 05:17:00,37.9,18.0,30.02,North,9,0.0,2.0,44,0.00,,,0.00,weatherlink.com 1.10,2013-04-02 09:17:00,
2013-04-02 05:32:00,36.5,18.0,30.02,North,9,0.0,1.0,48,0.00,,,0.00,weatherlink.com 1.10,2013-04-02 09:32:00,
2013-04-02 05:47:00,35.6,19.0,30.02,North,9,0.0,1.0,52,0.00,,,0.00,weatherlink.com 1.10,2013-04-02 09:47:00,
2013-04-02 06:02:00,35.8,17.0,30.03,North,9,0.0,2.0,46,0.00,,,0.00,weatherlink.com 1.10,2013-04-02 10:02:00,
2013-04-02 06:17:00,35.5,17.0,30.03,North,9,0.0,2.0,47,0.00,,,0.00,weatherlink.com 1.10,2013-04-02 10:17:00,
2013-04-02 06:32:00,34.3,18.0,30.04,North,9,0.0,1.0,51,0.00,,,0.00,weatherlink.com 1.10,2013-04-02 10:32:00,
2013-04-02 06:47:00,33.8,17.0,30.05,North,9,0.0,1.0,50,0.00,,,0.00,weatherlink.com 1.10,2013-04-02 10:47:00,
2013-04-02 07:02:00,34.9,19.0,30.05,North,9,0.0,3.0,52,0.00,,,0.00,weatherlink.com 1.10,2013-04-02 11:02:00,
2013-04-02 07:17:00,35.0,23.0,30.07,North,9,1.0,3.0,61,0.00,,,0.00,weatherlink.com 1.10,2013-04-02 11:17:00,
2013-04-02 07:32:00,37.2,18.0,30.08,North,350,0.0,4.0,45,0.00,,,0.00,weatherlink.com 1.10,2013-04-02 11:32:00,
2013-04-02 07:47:00,38.5,17.0,30.09,NNE,20,2.0,5.0,42,0.00,,,0.00,weatherlink.com 1.10,2013-04-02 11:47:00,
2013-04-02 08:02:00,39.2,17.0,30.09,North,355,2.0,4.0,40,0.00,,,0.00,weatherlink.com 1.10,2013-04-02 12:02:00,
2013-04-02 08:17:00,39.6,16.0,30.10,NNE,28,5.0,5.0,39,0.00,,,0.00,weatherlink.com 1.10,2013-04-02 12:17:00,
2013-04-02 08:32:00,39.5,16.0,30.10,North,9,4.0,10.0,39,0.00,,,0.00,weatherlink.com 1.10,2013-04-02 12:32:00,
2013-04-02 08:47:00,39.9,18.0,30.10,North,5,6.0,7.0,41,0.00,,,0.00,weatherlink.com 1.10,2013-04-02 12:47:00,
2013-04-02 09:02:00,40.9,15.0,30.10,NE,51,11.0,17.0,35,0.00,,,0.00,weatherlink.com 1.10,2013-04-02 13:02:00,
2013-04-02 09:17:00,41.5,17.0,30.10,North,350,7.0,16.0,37,0.00,,,0.00,weatherlink.com 1.10,2013-04-02 13:17:00,
2013-04-02 09:32:00,41.8,14.0,30.10,North,355,6.0,18.0,32,0.00,,,0.00,weatherlink.com 1.10,2013-04-02 13:32:00,
2013-04-02 09:47:00,42.2,14.0,30.09,NNE,15,8.0,14.0,32,0.00,,,0.00,weatherlink.com 1.10,2013-04-02 13:47:00,
2013-04-02 10:02:00,42.5,12.0,30.10,NNW,334,8.0,21.0,29,0.00,,,0.00,weatherlink.com 1.10,2013-04-02 14:02:00,
2013-04-02 10:17:00,42.3,14.0,30.09,NNE,12,12.0,21.0,32,0.00,,,0.00,weatherlink.com 1.10,2013-04-02 14:17:00,
2013-04-02 10:32:00,42.8,12.0,30.09,NNE,12,18.0,21.0,29,0.00,,,0.00,weatherlink.com 1.10,2013-04-02 14:32:00,
2013-04-02 10:47:00,42.8,12.0,30.09,North,9,6.0,18.0,28,0.00,,,0.00,weatherlink.com 1.10,2013-04-02 14:47:00,
2013-04-02 11:02:00,43.3,14.0,30.09,NNE,17,12.0,21.0,30,0.00,,,0.00,weatherlink.com 1.10,2013-04-02 15:02:00,
2013-04-02 11:18:00,44.1,14.0,30.09,North,360,8.0,16.0,29,0.00,,,0.00,weatherlink.com 1.10,2013-04-02 15:18:00,
2013-04-02 11:33:00,44.2,13.0,30.09,North,360,3.0,16.0,28,0.00,,,0.00,weatherlink.com 1.10,2013-04-02 15:33:00,
2013-04-02 11:48:00,43.6,8.0,30.09,North,360,9.0,28.0,23,0.00,,,0.00,weatherlink.com 1.10,2013-04-02 15:48:00,
2013-04-02 12:03:00,44.9,8.0,30.09,North,9,5.0,15.0,22,0.00,,,0.00,weatherlink.com 1.10,2013-04-02 16:03:00,
2013-04-02 12:18:00,45.2,8.0,30.09,North,360,14.0,16.0,22,0.00,,,0.00,weatherlink.com 1.10,2013-04-02 16:18:00,
2013-04-02 12:33:00,44.3,8.0,30.09,North,355,10.0,24.0,23,0.00,,,0.00,weatherlink.com 1.10,2013-04-02 16:33:00,
2013-04-02 12:48:00,44.5,6.0,30.09,NNE,21,11.0,20.0,20,0.00,,,0.00,weatherlink.com 1.10,2013-04-02 16:48:00,
2013-04-02 13:03:00,44.9,8.0,30.08,NNW,341,13.0,19.0,22,0.00,,,0.00,weatherlink.com 1.10,2013-04-02 17:03:00,
2013-04-02 13:18:00,45.4,6.0,30.08,North,355,22.0,24.0,20,0.00,,,0.00,weatherlink.com 1.10,2013-04-02 17:18:00,
2013-04-02 13:33:00,45.2,7.0,30.07,North,350,2.0,23.0,21,0.00,,,0.00,weatherlink.com 1.10,2013-04-02 17:33:00,
2013-04-02 14:03:00,45.5,10.0,30.07,NE,35,16.0,22.0,23,0.00,,,0.00,weatherlink.com 1.10,2013-04-02 18:03:00,
2013-04-02 14:18:00,45.7,12.0,30.07,NNE,14,13.0,23.0,25,0.00,,,0.00,weatherlink.com 1.10,2013-04-02 18:18:00,
2013-04-02 14:33:00,46.2,8.0,30.06,NE,49,11.0,27.0,21,0.00,,,0.00,weatherlink.com 1.10,2013-04-02 18:33:00,
2013-04-02 14:48:00,46.8,9.0,30.06,NNW,338,5.0,18.0,21,0.00,,,0.00,weatherlink.com 1.10,2013-04-02 18:48:00,
2013-04-02 15:03:00,46.5,7.0,30.06,NNW,329,9.0,26.0,20,0.00,,,0.00,weatherlink.com 1.10,2013-04-02 19:03:00,
2013-04-02 15:18:00,47.0,8.0,30.05,North,9,12.0,19.0,20,0.00,,,0.00,weatherlink.com 1.10,2013-04-02 19:18:00,
2013-04-02 15:33:00,46.8,11.0,30.05,North,355,12.0,20.0,23,0.00,,,0.00,weatherlink.com 1.10,2013-04-02 19:33:00,
2013-04-02 15:48:00,46.8,10.0,30.04,North,5,10.0,20.0,22,0.00,,,0.00,weatherlink.com 1.10,2013-04-02 19:48:00,
2013-04-02 16:03:00,47.4,10.0,30.04,NNW,328,6.0,19.0,22,0.00,,,0.00,weatherlink.com 1.10,2013-04-02 20:03:00,
2013-04-02 16:18:00,47.1,12.0,30.04,North,5,11.0,19.0,24,0.00,,,0.00,weatherlink.com 1.10,2013-04-02 20:18:00,
2013-04-02 16:33:00,47.0,10.0,30.04,NNE,13,16.0,24.0,22,0.00,,,0.00,weatherlink.com 1.10,2013-04-02 20:33:00,
2013-04-02 16:48:00,47.4,14.0,30.04,NNW,337,13.0,28.0,26,0.00,,,0.00,weatherlink.com 1.10,2013-04-02 20:48:00,
2013-04-02 17:04:00,47.9,10.0,30.05,NNE,23,14.0,21.0,21,0.00,,,0.00,weatherlink.com 1.10,2013-04-02 21:04:00,
2013-04-02 17:18:00,47.9,12.0,30.05,NNE,14,10.0,16.0,23,0.00,,,0.00,weatherlink.com 1.10,2013-04-02 21:18:00,
2013-04-02 17:33:00,47.3,12.0,30.05,NNE,20,10.0,18.0,24,0.00,,,0.00,weatherlink.com 1.10,2013-04-02 21:33:00,
2013-04-02 17:48:00,48.0,13.0,30.06,NNE,17,9.0,16.0,24,0.00,,,0.00,weatherlink.com 1.10,2013-04-02 21:48:00,
2013-04-02 18:03:00,47.7,12.0,30.06,NNE,17,11.0,17.0,24,0.00,,,0.00,weatherlink.com 1.10,2013-04-02 22:03:00,
2013-04-02 18:18:00,47.3,13.0,30.07,NNE,28,12.0,21.0,25,0.00,,,0.00,weatherlink.com 1.10,2013-04-02 22:18:00,
2013-04-02 18:33:00,47.4,12.0,30.08,NNE,27,12.0,15.0,24,0.00,,,0.00,weatherlink.com 1.10,2013-04-02 22:33:00,
2013-04-02 18:48:00,47.3,12.0,30.08,NNE,29,11.0,15.0,24,0.00,,,0.00,weatherlink.com 1.10,2013-04-02 22:48:00,
2013-04-02 19:03:00,46.7,10.0,30.09,NNE,25,10.0,18.0,22,0.00,,,0.00,weatherlink.com 1.10,2013-04-02 23:03:00,
2013-04-02 19:18:00,46.2,14.0,30.09,North,5,13.0,14.0,27,0.00,,,0.00,weatherlink.com 1.10,2013-04-02 23:18:00,
2013-04-02 19:48:00,45.5,12.0,30.10,NNE,23,5.0,12.0,26,0.00,,,0.00,weatherlink.com 1.10,2013-04-02 23:48:00,
2013-04-02 20:03:00,45.4,12.0,30.10,North,351,7.0,11.0,26,0.00,,,0.00,weatherlink.com 1.10,2013-04-03 00:03:00,
2013-04-02 20:18:00,44.9,13.0,30.10,North,11,5.0,10.0,27,0.00,,,0.00,weatherlink.com 1.10,2013-04-03 00:18:00,
2013-04-02 20:33:00,44.6,13.0,30.11,North,360,3.0,7.0,28,0.00,,,0.00,weatherlink.com 1.10,2013-04-03 00:33:00,
2013-04-02 20:48:00,44.2,14.0,30.12,NE,37,3.0,6.0,29,0.00,,,0.00,weatherlink.com 1.10,2013-04-03 00:48:00,
2013-04-02 21:03:00,43.6,13.0,30.12,NE,36,3.0,5.0,29,0.00,,,0.00,weatherlink.com 1.10,2013-04-03 01:03:00,
2013-04-02 21:18:00,43.1,15.0,30.13,NE,36,2.0,4.0,32,0.00,,,0.00,weatherlink.com 1.10,2013-04-03 01:18:00,
2013-04-02 21:33:00,42.5,14.0,30.14,NE,36,0.0,4.0,32,0.00,,,0.00,weatherlink.com 1.10,2013-04-03 01:33:00,
2013-04-02 21:48:00,42.5,15.0,30.14,NE,36,1.0,6.0,33,0.00,,,0.00,weatherlink.com 1.10,2013-04-03 01:48:00,
2013-04-02 22:03:00,42.5,14.0,30.14,NNE,23,3.0,7.0,31,0.00,,,0.00,weatherlink.com 1.10,2013-04-03 02:03:00,
2013-04-02 22:18:00,42.1,15.0,30.15,NNE,32,3.0,4.0,34,0.00,,,0.00,weatherlink.com 1.10,2013-04-03 02:18:00,
2013-04-02 22:33:00,41.8,18.0,30.15,NNE,27,3.0,5.0,39,0.00,,,0.00,weatherlink.com 1.10,2013-04-03 02:33:00,
2013-04-02 22:48:00,41.8,16.0,30.15,NNE,19,3.0,8.0,36,0.00,,,0.00,weatherlink.com 1.10,2013-04-03 02:48:00,
2013-04-02 23:04:00,41.2,15.0,30.15,North,355,3.0,6.0,34,0.00,,,0.00,weatherlink.com 1.10,2013-04-03 03:04:00,
2013-04-02 23:19:00,40.9,14.0,30.15,North,5,3.0,4.0,33,0.00,,,0.00,weatherlink.com 1.10,2013-04-03 03:19:00,
2013-04-02 23:35:00,40.8,15.0,30.16,North,5,0.0,5.0,35,0.00,,,0.00,weatherlink.com 1.10,2013-04-03 03:35:00,